Terminal Aerodrome Forecast
Issued by NWS Sioux Falls, SD

Home | Current Version | Previous Version | Graphics & Text | Print | Product List | Glossary On
Versions: 1 2 3 4 5 6 7 8 9 10 11 12 13 14 15 16 17 18 19 20 21 22 23 24 25 26 27 28 29 30 31 32
000
FTUS43 KFSD 160525
TAFSUX
TAF
KSUX 160525Z 1606/1706 36004KT P6SM SKC
     FM161000 09004KT P6SM FEW250
     FM161400 14008KT P6SM BKN120
     FM161700 15013KT P6SM SCT150
     FM162000 16018G28KT P6SM SCT150=

USA.gov is the U.S. government's official web portal to all federal, state and local government web resources and services.